Wetterdaten: Woche 23.12.19 - 29.12.19 (KW52)
Datum Zeit Temp. Aussen Temp. o. S. Temp +5cm Feuchte Auss Luftdruck Regen Sonnenschein Regendauer Solar Windben Empfang
23.12.2019 00:00 7,0 C 6,5 C 5,6 C 97 % 996,0 hPa 0,0 l/m 0,00 h 0,00 h 0 W/m 11,7 km/h (2 Bft) 97,69 %
23.12.2019 01:00 7,3 C 6,7 C 5,6 C 97 % 996,7 hPa 0,0 l/m 0,00 h 0,00 h 0 W/m 10,9 km/h (2 Bft) 98,15 %
23.12.2019 02:00 7,4 C 6,7 C 5,8 C 97 % 997,7 hPa 0,0 l/m 0,00 h 0,00 h 0 W/m 13,0 km/h (3 Bft) 96,87 %
23.12.2019 03:00 7,4 C 6,7 C 6,1 C 97 % 998,7 hPa 0,0 l/m 0,00 h 0,00 h 0 W/m 16,1 km/h (3 Bft) 98,15 %
23.12.2019 04:00 7,5 C 6,7 C 6,1 C 96 % 999,5 hPa 0,0 l/m 0,00 h 0,00 h 0 W/m 16,3 km/h (3 Bft) 98,09 %
23.12.2019 05:00 7,4 C 6,7 C 6,0 C 96 % 1000,4 hPa 0,0 l/m 0,00 h 0,03 h 0 W/m 12,7 km/h (3 Bft) 96,29 %
23.12.2019 06:00 7,4 C 6,7 C 6,1 C 95 % 1001,2 hPa 0,0 l/m 0,00 h 0,03 h 0 W/m 14,0 km/h (3 Bft) 96,24 %
23.12.2019 07:00 7,6 C 6,7 C 6,4 C 96 % 1002,2 hPa 0,0 l/m 0,00 h 0,00 h 0 W/m 15,2 km/h (3 Bft) 97,79 %
23.12.2019 08:00 7,6 C 7,1 C 6,7 C 96 % 1003,4 hPa 0,0 l/m 0,00 h 0,00 h 6 W/m 13,5 km/h (3 Bft) 97,51 %
23.12.2019 09:00 7,6 C 7,2 C 6,7 C 95 % 1004,5 hPa 0,0 l/m 0,00 h 0,00 h 29 W/m 15,0 km/h (3 Bft) 96,94 %
23.12.2019 10:00 7,6 C 7,4 C 6,7 C 94 % 1005,9 hPa 0,0 l/m 0,00 h 0,00 h 65 W/m 16,2 km/h (3 Bft) 96,72 %
23.12.2019 11:00 8,2 C 9,3 C 7,3 C 93 % 1006,7 hPa 0,0 l/m 0,37 h 0,00 h 136 W/m 15,5 km/h (3 Bft) 96,66 %
23.12.2019 12:00 8,6 C 8,5 C 7,8 C 91 % 1007,3 hPa 0,0 l/m 0,00 h 0,00 h 93 W/m 15,0 km/h (3 Bft) 96,76 %
23.12.2019 13:00 8,8 C 8,3 C 7,6 C 90 % 1007,9 hPa 0,0 l/m 0,03 h 0,20 h 78 W/m 15,5 km/h (3 Bft) 96,37 %
23.12.2019 14:00 8,5 C 7,5 C 6,7 C 93 % 1008,7 hPa 0,0 l/m 0,00 h 0,10 h 50 W/m 13,2 km/h (3 Bft) 96,00 %
23.12.2019 15:00 8,3 C 7,7 C 7,0 C 93 % 1009,5 hPa 0,0 l/m 0,00 h 0,00 h 23 W/m 15,1 km/h (3 Bft) 98,08 %
23.12.2019 16:00 8,1 C 7,3 C 6,8 C 94 % 1010,4 hPa 0,0 l/m 0,00 h 0,00 h 8 W/m 15,6 km/h (3 Bft) 98,01 %
23.12.2019 17:00 8,1 C 7,4 C 6,9 C 94 % 1011,3 hPa 0,0 l/m 0,00 h 0,00 h 0 W/m 13,2 km/h (3 Bft) 97,22 %
23.12.2019 18:00 7,9 C 7,0 C 6,4 C 93 % 1012,1 hPa 0,0 l/m 0,00 h 0,27 h 0 W/m 12,3 km/h (3 Bft) 96,17 %
23.12.2019 19:00 7,7 C 6,7 C 5,9 C 93 % 1012,7 hPa 0,0 l/m 0,00 h 0,10 h 0 W/m 10,9 km/h (2 Bft) 98,43 %
23.12.2019 20:00 7,6 C 6,9 C 6,2 C 92 % 1013,3 hPa 0,0 l/m 0,00 h 0,00 h 0 W/m 11,1 km/h (2 Bft) 97,51 %
23.12.2019 21:00 7,6 C 6,6 C 6,1 C 91 % 1014,0 hPa 0,2 l/m 0,00 h 0,37 h 0 W/m 10,7 km/h (2 Bft) 96,51 %
23.12.2019 22:00 7,2 C 6,1 C 5,6 C 92 % 1014,2 hPa 0,0 l/m 0,00 h 0,03 h 0 W/m 13,0 km/h (3 Bft) 96,57 %
23.12.2019 23:00 7,0 C 6,1 C 5,6 C 92 % 1014,7 hPa 0,0 l/m 0,00 h 0,00 h 0 W/m 14,6 km/h (3 Bft) 98,43 %
24.12.2019 00:00 6,8 C 5,9 C 5,4 C 92 % 1015,0 hPa 0,0 l/m 0,00 h 0,00 h 0 W/m 13,2 km/h (3 Bft) 96,53 %
24.12.2019 01:00 6,5 C 5,6 C 5,0 C 94 % 1015,1 hPa 0,0 l/m 0,00 h 0,00 h 0 W/m 10,2 km/h (2 Bft) 97,01 %
24.12.2019 02:00 6,3 C 5,6 C 5,0 C 95 % 1015,0 hPa 0,0 l/m 0,00 h 0,00 h 0 W/m 12,3 km/h (3 Bft) 98,29 %
24.12.2019 03:00 6,7 C 6,4 C 5,6 C 96 % 1014,8 hPa 0,0 l/m 0,00 h 0,00 h 0 W/m 18,5 km/h (3 Bft) 98,29 %
24.12.2019 04:00 7,1 C 6,6 C 5,9 C 95 % 1014,0 hPa 0,0 l/m 0,00 h 0,00 h 0 W/m 14,4 km/h (3 Bft) 96,29 %
24.12.2019 05:00 6,8 C 6,1 C 5,3 C 94 % 1013,1 hPa 0,0 l/m 0,00 h 0,00 h 0 W/m 11,3 km/h (2 Bft) 97,13 %
24.12.2019 06:00 6,4 C 5,8 C 4,9 C 93 % 1012,0 hPa 0,0 l/m 0,00 h 0,00 h 0 W/m 13,1 km/h (3 Bft) 96,25 %
24.12.2019 07:00 6,1 C 5,6 C 4,9 C 93 % 1011,0 hPa 0,0 l/m 0,00 h 0,00 h 0 W/m 17,1 km/h (3 Bft) 97,48 %
24.12.2019 08:00 6,2 C 4,8 C 4,4 C 94 % 1009,5 hPa 0,8 l/m 0,00 h 0,50 h 0 W/m 22,0 km/h (4 Bft) 97,22 %
24.12.2019 09:00 6,2 C 5,0 C 4,4 C 96 % 1008,5 hPa 1,0 l/m 0,00 h 0,87 h 9 W/m 25,5 km/h (4 Bft) 97,44 %
24.12.2019 10:00 6,2 C 5,4 C 4,9 C 98 % 1007,6 hPa 0,4 l/m 0,00 h 0,37 h 15 W/m 22,4 km/h (4 Bft) 96,60 %
24.12.2019 11:00 7,2 C 6,8 C 6,3 C 99 % 1006,8 hPa 0,0 l/m 0,00 h 0,00 h 57 W/m 23,6 km/h (4 Bft) 95,37 %
24.12.2019 12:00 8,8 C 8,3 C 7,5 C 98 % 1006,3 hPa 0,0 l/m 0,00 h 0,00 h 74 W/m 25,0 km/h (4 Bft) 98,59 %
24.12.2019 13:00 9,9 C 9,5 C 8,1 C 92 % 1006,7 hPa 0,0 l/m 0,00 h 0,00 h 75 W/m 23,4 km/h (4 Bft) 98,51 %
24.12.2019 14:00 10,3 C 10,1 C 8,4 C 87 % 1007,3 hPa 0,0 l/m 0,07 h 0,00 h 62 W/m 19,2 km/h (3 Bft) 92,96 %
24.12.2019 15:00 10,0 C 8,7 C 8,0 C 88 % 1007,7 hPa 0,0 l/m 0,07 h 0,60 h 24 W/m 18,1 km/h (3 Bft) 99,36 %
24.12.2019 16:00 9,3 C 7,5 C 7,1 C 93 % 1007,9 hPa 0,8 l/m 0,03 h 0,47 h 11 W/m 10,8 km/h (2 Bft) 97,58 %
24.12.2019 17:00 8,5 C 6,8 C 6,6 C 94 % 1008,5 hPa 1,6 l/m 0,00 h 0,43 h 0 W/m 20,0 km/h (4 Bft) 95,39 %
24.12.2019 18:00 8,4 C 7,1 C 6,7 C 96 % 1009,1 hPa 0,0 l/m 0,00 h 0,10 h 0 W/m 15,7 km/h (3 Bft) 99,47 %
24.12.2019 19:00 8,6 C 7,4 C 7,0 C 96 % 1009,5 hPa 0,6 l/m 0,00 h 0,27 h 0 W/m 13,6 km/h (3 Bft) 96,70 %
24.12.2019 20:00 8,8 C 7,6 C 7,1 C 96 % 1009,9 hPa 0,0 l/m 0,00 h 0,60 h 0 W/m 20,0 km/h (4 Bft) 97,29 %
24.12.2019 21:00 8,9 C 7,5 C 7,0 C 95 % 1010,4 hPa 0,0 l/m 0,00 h 0,70 h 0 W/m 18,7 km/h (3 Bft) 98,58 %
24.12.2019 22:00 8,8 C 7,6 C 7,0 C 95 % 1010,7 hPa 0,2 l/m 0,00 h 0,17 h 0 W/m 15,0 km/h (3 Bft) 96,23 %
24.12.2019 23:00 8,8 C 7,3 C 6,8 C 95 % 1011,3 hPa 1,0 l/m 0,00 h 0,67 h 0 W/m 12,3 km/h (3 Bft) 99,08 %
25.12.2019 00:00 8,5 C 7,2 C 6,7 C 96 % 1011,8 hPa 0,4 l/m 0,00 h 0,27 h 0 W/m 10,7 km/h (2 Bft) 94,42 %
25.12.2019 01:00 8,4 C 7,2 C 6,7 C 98 % 1012,0 hPa 0,2 l/m 0,00 h 0,27 h 0 W/m 9,1 km/h (2 Bft) 97,32 %
25.12.2019 02:00 8,4 C 7,2 C 6,7 C 98 % 1012,3 hPa 0,0 l/m 0,00 h 0,23 h 0 W/m 6,6 km/h (2 Bft) 99,64 %
25.12.2019 03:00 8,4 C 7,3 C 6,9 C 98 % 1012,7 hPa 0,0 l/m 0,00 h 0,00 h 0 W/m 6,6 km/h (2 Bft) 95,51 %
25.12.2019 04:00 8,4 C 7,2 C 6,7 C 99 % 1013,2 hPa 0,2 l/m 0,00 h 0,50 h 0 W/m 8,5 km/h (2 Bft) 98,15 %
25.12.2019 05:00 8,0 C 6,9 C 6,6 C 99 % 1013,6 hPa 0,0 l/m 0,00 h 0,07 h 0 W/m 10,4 km/h (2 Bft) 98,57 %
25.12.2019 06:00 7,5 C 6,5 C 6,1 C 99 % 1014,2 hPa 0,0 l/m 0,00 h 0,00 h 0 W/m 13,9 km/h (3 Bft) 96,24 %
25.12.2019 07:00 7,2 C 6,1 C 5,6 C 98 % 1015,0 hPa 0,0 l/m 0,00 h 0,33 h 0 W/m 14,1 km/h (3 Bft) 96,20 %
25.12.2019 08:00 7,1 C 6,1 C 5,6 C 98 % 1016,0 hPa 0,0 l/m 0,00 h 0,43 h 1 W/m 15,5 km/h (3 Bft) 97,66 %
25.12.2019 09:00 7,1 C 6,1 C 5,6 C 98 % 1017,3 hPa 0,4 l/m 0,00 h 0,57 h 14 W/m 16,5 km/h (3 Bft) 97,24 %
25.12.2019 10:00 7,2 C 6,3 C 5,9 C 98 % 1019,1 hPa 0,0 l/m 0,00 h 0,20 h 33 W/m 15,9 km/h (3 Bft) 96,47 %
25.12.2019 11:00 7,3 C 6,7 C 6,2 C 98 % 1020,3 hPa 0,0 l/m 0,00 h 0,00 h 82 W/m 12,8 km/h (3 Bft) 98,42 %
25.12.2019 12:00 7,5 C 7,0 C 6,5 C 98 % 1021,1 hPa 0,2 l/m 0,00 h 0,00 h 61 W/m 11,5 km/h (2 Bft) 97,66 %
25.12.2019 13:00 7,6 C 7,0 C 6,3 C 98 % 1021,7 hPa 0,0 l/m 0,07 h 0,47 h 65 W/m 8,6 km/h (2 Bft) 95,62 %
25.12.2019 14:00 7,8 C 7,3 C 6,5 C 98 % 1022,3 hPa 0,0 l/m 0,03 h 0,00 h 56 W/m 11,0 km/h (2 Bft) 99,65 %
25.12.2019 15:00 7,6 C 7,1 C 6,1 C 97 % 1023,0 hPa 0,0 l/m 0,00 h 0,00 h 24 W/m 8,9 km/h (2 Bft) 97,28 %
25.12.2019 16:00 7,3 C 6,4 C 5,7 C 97 % 1023,8 hPa 0,0 l/m 0,00 h 0,10 h 7 W/m 10,5 km/h (2 Bft) 95,91 %
25.12.2019 17:00 6,6 C 5,6 C 5,0 C 96 % 1024,3 hPa 0,0 l/m 0,00 h 0,00 h 0 W/m 6,5 km/h (2 Bft) 99,55 %
25.12.2019 18:00 6,5 C 5,6 C 5,0 C 97 % 1024,8 hPa 0,0 l/m 0,00 h 0,10 h 0 W/m 3,5 km/h (1 Bft) 96,23 %
25.12.2019 19:00 6,4 C 5,6 C 5,0 C 98 % 1025,2 hPa 0,0 l/m 0,00 h 0,00 h 0 W/m 1,1 km/h (0 Bft) 96,88 %
25.12.2019 20:00 6,2 C 5,6 C 5,0 C 98 % 1025,7 hPa 0,0 l/m 0,00 h 0,00 h 0 W/m 1,1 km/h (0 Bft) 97,29 %
25.12.2019 21:00 6,2 C 5,6 C 5,0 C 99 % 1025,9 hPa 0,0 l/m 0,00 h 0,00 h 0 W/m 0,3 km/h (0 Bft) 95,99 %
25.12.2019 22:00 6,1 C 5,6 C 5,0 C 99 % 1026,1 hPa 0,0 l/m 0,00 h 0,00 h 0 W/m 0,2 km/h (0 Bft) 98,35 %
25.12.2019 23:00 6,0 C 5,1 C 4,7 C 99 % 1026,2 hPa 0,0 l/m 0,00 h 0,00 h 0 W/m 0,1 km/h (0 Bft) 97,00 %
26.12.2019 00:00 6,0 C 5,2 C 4,7 C 99 % 1026,3 hPa 0,0 l/m 0,00 h 0,00 h 0 W/m 0,1 km/h (0 Bft) 97,64 %
26.12.2019 01:00 5,9 C 5,0 C 4,4 C 99 % 1026,2 hPa 0,0 l/m 0,00 h 0,00 h 0 W/m 0,0 km/h (0 Bft) 98,29 %
26.12.2019 02:00 5,7 C 5,0 C 4,4 C 99 % 1026,1 hPa 0,0 l/m 0,00 h 0,00 h 0 W/m 0,0 km/h (0 Bft) 95,73 %
26.12.2019 03:00 5,8 C 5,0 C 4,4 C 99 % 1026,1 hPa 0,0 l/m 0,00 h 0,00 h 0 W/m 0,2 km/h (0 Bft) 97,85 %
26.12.2019 04:00 5,8 C 5,0 C 4,4 C 99 % 1025,9 hPa 0,0 l/m 0,00 h 0,00 h 0 W/m 0,2 km/h (0 Bft) 97,50 %
26.12.2019 05:00 5,6 C 5,0 C 4,4 C 99 % 1025,6 hPa 0,0 l/m 0,00 h 0,00 h 0 W/m 1,8 km/h (1 Bft) 94,51 %
26.12.2019 06:00 5,5 C 5,0 C 4,3 C 99 % 1025,4 hPa 0,0 l/m 0,00 h 0,00 h 0 W/m 0,0 km/h (0 Bft) 98,53 %
26.12.2019 07:00 5,3 C 4,4 C 3,9 C 99 % 1025,2 hPa 0,0 l/m 0,00 h 0,00 h 0 W/m 0,9 km/h (0 Bft) 97,22 %
26.12.2019 08:00 5,1 C 4,4 C 3,9 C 99 % 1025,5 hPa 0,0 l/m 0,00 h 0,00 h 6 W/m 0,5 km/h (0 Bft) 94,62 %
26.12.2019 09:00 5,1 C 4,7 C 4,2 C 99 % 1025,5 hPa 0,0 l/m 0,00 h 0,00 h 24 W/m 1,0 km/h (0 Bft) 95,73 %
26.12.2019 10:00 5,6 C 5,8 C 5,3 C 100 % 1025,2 hPa 0,0 l/m 0,00 h 0,00 h 60 W/m 4,9 km/h (1 Bft) 98,93 %
26.12.2019 11:00 6,1 C 6,1 C 5,6 C 100 % 1025,1 hPa 0,0 l/m 0,00 h 0,00 h 84 W/m 7,1 km/h (2 Bft) 95,66 %
26.12.2019 12:00 6,1 C 6,1 C 5,7 C 99 % 1024,6 hPa 0,0 l/m 0,00 h 0,00 h 78 W/m 12,9 km/h (3 Bft) 97,32 %
26.12.2019 13:00 6,2 C 6,1 C 5,6 C 99 % 1023,6 hPa 0,0 l/m 0,00 h 0,00 h 58 W/m 13,0 km/h (3 Bft) 99,29 %
26.12.2019 14:00 6,2 C 6,1 C 5,6 C 97 % 1022,5 hPa 0,0 l/m 0,00 h 0,00 h 34 W/m 14,0 km/h (3 Bft) 95,30 %
26.12.2019 15:00 6,2 C 5,7 C 5,0 C 94 % 1022,8 hPa 0,0 l/m 0,00 h 0,00 h 13 W/m 9,5 km/h (2 Bft) 97,86 %
26.12.2019 16:00 6,0 C 5,2 C 4,6 C 93 % 1022,6 hPa 0,0 l/m 0,00 h 0,00 h 5 W/m 11,9 km/h (2 Bft) 99,14 %
26.12.2019 17:00 5,8 C 5,0 C 4,4 C 93 % 1022,2 hPa 0,0 l/m 0,00 h 0,00 h 0 W/m 14,2 km/h (3 Bft) 95,18 %
26.12.2019 18:00 5,8 C 5,1 C 4,4 C 93 % 1021,7 hPa 0,0 l/m 0,00 h 0,00 h 0 W/m 18,2 km/h (3 Bft) 96,54 %
26.12.2019 19:00 5,7 C 5,0 C 4,4 C 93 % 1021,4 hPa 0,0 l/m 0,00 h 0,00 h 0 W/m 17,2 km/h (3 Bft) 96,74 %
26.12.2019 20:00 5,5 C 5,0 C 4,4 C 94 % 1021,3 hPa 0,0 l/m 0,00 h 0,00 h 0 W/m 16,0 km/h (3 Bft) 96,94 %
26.12.2019 21:00 5,6 C 5,0 C 4,4 C 94 % 1021,2 hPa 0,0 l/m 0,00 h 0,00 h 0 W/m 17,9 km/h (3 Bft) 97,15 %
26.12.2019 22:00 5,6 C 4,6 C 4,0 C 94 % 1020,9 hPa 0,0 l/m 0,00 h 0,00 h 0 W/m 18,6 km/h (3 Bft) 96,85 %
26.12.2019 23:00 5,4 C 4,1 C 3,9 C 95 % 1020,8 hPa 0,4 l/m 0,00 h 0,40 h 0 W/m 20,8 km/h (4 Bft) 96,05 %
27.12.2019 00:00 5,1 C 3,9 C 3,7 C 97 % 1020,4 hPa 0,6 l/m 0,00 h 0,83 h 0 W/m 17,4 km/h (3 Bft) 94,51 %
27.12.2019 01:00 5,1 C 4,1 C 3,9 C 98 % 1020,0 hPa 0,2 l/m 0,00 h 0,60 h 0 W/m 15,5 km/h (3 Bft) 98,30 %
27.12.2019 02:00 5,0 C 4,1 C 3,9 C 98 % 1020,2 hPa 0,0 l/m 0,00 h 0,07 h 0 W/m 14,8 km/h (3 Bft) 96,77 %
27.12.2019 03:00 5,1 C 4,4 C 3,9 C 99 % 1020,5 hPa 0,2 l/m 0,00 h 0,10 h 0 W/m 11,3 km/h (2 Bft) 96,44 %
27.12.2019 04:00 5,1 C 4,4 C 3,9 C 99 % 1020,9 hPa 0,0 l/m 0,00 h 0,17 h 0 W/m 5,4 km/h (1 Bft) 99,13 %
27.12.2019 05:00 5,2 C 4,4 C 3,9 C 99 % 1021,5 hPa 0,2 l/m 0,00 h 0,00 h 0 W/m 2,0 km/h (1 Bft) 96,24 %
27.12.2019 06:00 5,1 C 4,2 C 3,9 C 99 % 1022,2 hPa 0,0 l/m 0,00 h 0,00 h 0 W/m 1,2 km/h (1 Bft) 97,51 %
27.12.2019 07:00 5,1 C 4,4 C 3,9 C 99 % 1023,0 hPa 0,0 l/m 0,00 h 0,00 h 0 W/m 0,3 km/h (0 Bft) 98,15 %
27.12.2019 08:00 4,9 C 3,9 C 3,7 C 99 % 1024,2 hPa 0,0 l/m 0,00 h 0,00 h 6 W/m 1,2 km/h (1 Bft) 94,76 %
27.12.2019 09:00 4,3 C 3,1 C 2,5 C 99 % 1025,9 hPa 0,0 l/m 0,00 h 0,00 h 26 W/m 0,5 km/h (0 Bft) 98,51 %
27.12.2019 10:00 4,1 C 5,4 C 2,8 C 99 % 1027,7 hPa 0,0 l/m 0,83 h 0,00 h 134 W/m 4,1 km/h (1 Bft) 96,51 %
27.12.2019 11:00 4,8 C 7,8 C 3,4 C 99 % 1028,7 hPa 0,0 l/m 0,87 h 0,00 h 214 W/m 4,7 km/h (1 Bft) 97,08 %
27.12.2019 12:00 4,9 C 4,4 C 3,7 C 97 % 1028,9 hPa 0,0 l/m 0,00 h 0,00 h 87 W/m 2,8 km/h (1 Bft) 95,28 %
27.12.2019 13:00 4,9 C 4,9 C 4,0 C 96 % 1029,4 hPa 0,0 l/m 0,00 h 0,00 h 70 W/m 0,6 km/h (0 Bft) 99,07 %
27.12.2019 14:00 5,3 C 5,5 C 4,3 C 95 % 1030,6 hPa 0,0 l/m 0,00 h 0,00 h 61 W/m 0,1 km/h (0 Bft) 96,95 %
27.12.2019 15:00 5,4 C 5,0 C 3,9 C 94 % 1031,8 hPa 0,0 l/m 0,00 h 0,00 h 22 W/m 0,0 km/h (0 Bft) 97,15 %
27.12.2019 16:00 5,4 C 4,6 C 3,9 C 94 % 1032,7 hPa 0,0 l/m 0,00 h 0,00 h 6 W/m 0,0 km/h (0 Bft) 97,20 %
27.12.2019 17:00 5,2 C 4,5 C 3,4 C 94 % 1033,8 hPa 0,0 l/m 0,00 h 0,00 h 0 W/m 0,0 km/h (0 Bft) 95,73 %
27.12.2019 18:00 4,8 C 3,0 C 2,0 C 92 % 1034,4 hPa 0,0 l/m 0,00 h 0,00 h 0 W/m 0,0 km/h (0 Bft) 97,83 %
27.12.2019 19:00 3,3 C 1,1 C 0,2 C 91 % 1035,1 hPa 0,0 l/m 0,00 h 0,00 h 0 W/m 0,0 km/h (0 Bft) 99,01 %
27.12.2019 20:00 2,4 C 1,6 C 0,6 C 92 % 1035,7 hPa 0,0 l/m 0,00 h 0,00 h 0 W/m 0,0 km/h (0 Bft) 94,36 %
27.12.2019 21:00 2,2 C 1,3 C 0,2 C 94 % 1036,3 hPa 0,0 l/m 0,00 h 0,00 h 0 W/m 0,0 km/h (0 Bft) 97,79 %
27.12.2019 22:00 1,8 C 0,7 C -0,2 C 95 % 1036,7 hPa 0,0 l/m 0,00 h 0,00 h 0 W/m 0,0 km/h (0 Bft) 97,01 %
27.12.2019 23:00 1,3 C 0,4 C -0,6 C 95 % 1037,5 hPa 0,0 l/m 0,00 h 0,00 h 0 W/m 0,0 km/h (0 Bft) 98,15 %
28.12.2019 00:00 0,9 C -0,3 C -0,9 C 95 % 1037,9 hPa 0,0 l/m 0,00 h 0,00 h 0 W/m 0,0 km/h (0 Bft) 94,42 %
28.12.2019 01:00 0,3 C -1,2 C -1,9 C 95 % 1038,5 hPa 0,0 l/m 0,00 h 0,00 h 0 W/m 0,0 km/h (0 Bft) 95,72 %
28.12.2019 02:00 -0,2 C -1,5 C -2,1 C 96 % 1038,4 hPa 0,0 l/m 0,00 h 0,00 h 0 W/m 0,0 km/h (0 Bft) 97,89 %
28.12.2019 03:00 -0,7 C -2,2 C -2,8 C 96 % 1038,7 hPa 0,0 l/m 0,00 h 0,00 h 0 W/m 0,0 km/h (0 Bft) 96,58 %
28.12.2019 04:00 -1,3 C -2,7 C -3,0 C 96 % 1039,0 hPa 0,0 l/m 0,00 h 0,00 h 0 W/m 0,0 km/h (0 Bft) 96,38 %
28.12.2019 05:00 -2,0 C -3,2 C -3,3 C 96 % 1039,3 hPa 0,0 l/m 0,00 h 0,00 h 0 W/m 0,0 km/h (0 Bft) 98,30 %
28.12.2019 06:00 -2,3 C -3,4 C -3,6 C 96 % 1039,8 hPa 0,0 l/m 0,00 h 0,00 h 0 W/m 0,0 km/h (0 Bft) 97,12 %
28.12.2019 07:00 -1,9 C -2,5 C -2,9 C 97 % 1040,0 hPa 0,0 l/m 0,00 h 0,00 h 0 W/m 0,9 km/h (0 Bft) 95,04 %
28.12.2019 08:00 -0,7 C -1,3 C -2,1 C 97 % 1040,5 hPa 0,0 l/m 0,00 h 0,00 h 6 W/m 2,7 km/h (1 Bft) 97,82 %
28.12.2019 09:00 -0,5 C -0,5 C -1,4 C 97 % 1040,8 hPa 0,0 l/m 0,00 h 0,00 h 35 W/m 0,9 km/h (0 Bft) 96,93 %
28.12.2019 10:00 -0,0 C 0,3 C -0,5 C 98 % 1041,0 hPa 0,0 l/m 0,00 h 0,00 h 70 W/m 4,7 km/h (1 Bft) 95,66 %
28.12.2019 11:00 0,5 C 1,6 C 0,0 C 97 % 1041,2 hPa 0,0 l/m 0,10 h 0,00 h 115 W/m 2,8 km/h (1 Bft) 96,71 %
28.12.2019 12:00 1,6 C 4,7 C 0,8 C 96 % 1041,0 hPa 0,0 l/m 0,87 h 0,00 h 223 W/m 1,4 km/h (1 Bft) 97,93 %
28.12.2019 13:00 3,0 C 5,2 C 2,1 C 91 % 1040,4 hPa 0,0 l/m 1,00 h 0,00 h 216 W/m 2,4 km/h (1 Bft) 95,29 %
28.12.2019 14:00 3,5 C 4,2 C 2,8 C 88 % 1040,4 hPa 0,0 l/m 1,00 h 0,00 h 126 W/m 0,9 km/h (0 Bft) 98,99 %
28.12.2019 15:00 3,6 C 3,3 C 2,5 C 86 % 1040,8 hPa 0,0 l/m 0,20 h 0,00 h 54 W/m 1,3 km/h (1 Bft) 96,50 %
28.12.2019 16:00 3,0 C 2,1 C 1,2 C 87 % 1040,6 hPa 0,0 l/m 0,00 h 0,00 h 12 W/m 0,4 km/h (0 Bft) 97,30 %
28.12.2019 17:00 2,1 C 0,9 C 0,0 C 89 % 1040,7 hPa 0,0 l/m 0,00 h 0,00 h 0 W/m 0,0 km/h (0 Bft) 99,50 %
28.12.2019 18:00 1,7 C 1,1 C 0,5 C 90 % 1040,6 hPa 0,0 l/m 0,00 h 0,00 h 0 W/m 0,4 km/h (0 Bft) 95,92 %
28.12.2019 19:00 1,7 C 1,1 C 0,4 C 89 % 1040,9 hPa 0,0 l/m 0,00 h 0,00 h 0 W/m 0,0 km/h (0 Bft) 97,81 %
28.12.2019 20:00 1,5 C 0,7 C 0,1 C 90 % 1040,7 hPa 0,0 l/m 0,00 h 0,00 h 0 W/m 1,5 km/h (1 Bft) 98,14 %
28.12.2019 21:00 1,6 C 1,1 C 0,4 C 90 % 1040,5 hPa 0,0 l/m 0,00 h 0,00 h 0 W/m 8,3 km/h (2 Bft) 94,00 %
28.12.2019 22:00 1,4 C 0,6 C 0,0 C 89 % 1040,3 hPa 0,0 l/m 0,00 h 0,00 h 0 W/m 6,5 km/h (2 Bft) 98,02 %
28.12.2019 23:00 1,1 C 0,5 C -0,4 C 89 % 1039,9 hPa 0,0 l/m 0,00 h 0,00 h 0 W/m 6,0 km/h (2 Bft) 98,63 %
29.12.2019 00:00 0,8 C 0,1 C -0,6 C 89 % 1039,6 hPa 0,0 l/m 0,00 h 0,00 h 0 W/m 6,1 km/h (2 Bft) 96,88 %
29.12.2019 01:00 0,6 C 0,0 C -0,6 C 89 % 1039,6 hPa 0,0 l/m 0,00 h 0,00 h 0 W/m 7,2 km/h (2 Bft) 98,06 %
29.12.2019 02:00 0,5 C -0,1 C -0,8 C 89 % 1039,5 hPa 0,0 l/m 0,00 h 0,00 h 0 W/m 11,3 km/h (2 Bft) 96,86 %
29.12.2019 03:00 0,4 C -0,3 C -0,9 C 89 % 1039,2 hPa 0,0 l/m 0,00 h 0,00 h 0 W/m 15,7 km/h (3 Bft) 97,94 %
29.12.2019 04:00 0,1 C -0,6 C -1,1 C 90 % 1038,9 hPa 0,0 l/m 0,00 h 0,00 h 0 W/m 15,4 km/h (3 Bft) 98,78 %
29.12.2019 05:00 -0,0 C -0,8 C -1,5 C 90 % 1038,8 hPa 0,0 l/m 0,00 h 0,00 h 0 W/m 8,7 km/h (2 Bft) 93,59 %
29.12.2019 06:00 -0,2 C -1,0 C -1,6 C 90 % 1038,9 hPa 0,0 l/m 0,00 h 0,00 h 0 W/m 12,0 km/h (2 Bft) 99,04 %
29.12.2019 07:00 -0,2 C -0,8 C -1,3 C 90 % 1038,9 hPa 0,0 l/m 0,00 h 0,00 h 0 W/m 16,0 km/h (3 Bft) 97,01 %
29.12.2019 08:00 -0,0 C -0,6 C -1,1 C 89 % 1038,8 hPa 0,0 l/m 0,00 h 0,00 h 7 W/m 14,7 km/h (3 Bft) 94,01 %
29.12.2019 09:00 0,3 C 0,0 C -0,7 C 88 % 1039,0 hPa 0,0 l/m 0,00 h 0,00 h 26 W/m 12,3 km/h (3 Bft) 98,45 %
29.12.2019 10:00 0,6 C 0,5 C -0,2 C 88 % 1038,8 hPa 0,0 l/m 0,00 h 0,00 h 48 W/m 13,7 km/h (3 Bft) 97,16 %
29.12.2019 11:00 1,3 C 1,7 C 1,1 C 86 % 1038,6 hPa 0,0 l/m 0,07 h 0,00 h 97 W/m 12,5 km/h (3 Bft) 92,77 %
29.12.2019 12:00 1,9 C 2,2 C 1,6 C 84 % 1037,8 hPa 0,0 l/m 0,00 h 0,00 h 121 W/m 16,3 km/h (3 Bft) 97,57 %
29.12.2019 13:00 2,6 C 3,1 C 2,2 C 83 % 1037,3 hPa 0,0 l/m 0,07 h 0,00 h 125 W/m 12,7 km/h (3 Bft) 99,16 %
29.12.2019 14:00 3,1 C 3,1 C 2,4 C 81 % 1037,0 hPa 0,0 l/m 0,00 h 0,00 h 71 W/m 13,1 km/h (3 Bft) 96,09 %
29.12.2019 15:00 3,3 C 2,8 C 2,1 C 81 % 1036,8 hPa 0,0 l/m 0,00 h 0,00 h 37 W/m 7,9 km/h (2 Bft) 95,52 %
29.12.2019 16:00 2,9 C 2,2 C 1,5 C 80 % 1036,6 hPa 0,0 l/m 0,00 h 0,00 h 12 W/m 10,3 km/h (2 Bft) 99,34 %
29.12.2019 17:00 2,7 C 2,1 C 1,3 C 80 % 1036,7 hPa 0,0 l/m 0,00 h 0,00 h 0 W/m 10,8 km/h (2 Bft) 95,37 %
29.12.2019 18:00 2,8 C 2,2 C 1,7 C 80 % 1036,5 hPa 0,0 l/m 0,00 h 0,00 h 0 W/m 11,1 km/h (2 Bft) 96,02 %
29.12.2019 19:00 2,8 C 2,1 C 1,5 C 80 % 1036,3 hPa 0,0 l/m 0,00 h 0,00 h 0 W/m 18,8 km/h (3 Bft) 99,29 %
29.12.2019 20:00 2,5 C 1,9 C 1,0 C 81 % 1036,3 hPa 0,0 l/m 0,00 h 0,00 h 0 W/m 18,1 km/h (3 Bft) 94,50 %
29.12.2019 21:00 2,1 C 1,2 C 0,6 C 82 % 1035,9 hPa 0,0 l/m 0,00 h 0,00 h 0 W/m 17,7 km/h (3 Bft) 97,93 %
29.12.2019 22:00 1,9 C 1,1 C 0,6 C 82 % 1035,6 hPa 0,0 l/m 0,00 h 0,00 h 0 W/m 19,0 km/h (3 Bft) 98,01 %
29.12.2019 23:00 1,6 C 1,1 C 0,5 C 83 % 1035,4 hPa 0,0 l/m 0,00 h 0,00 h 0 W/m 16,0 km/h (3 Bft) 95,32 %
Min-Datum _ 28.12.19 28.12.19 28.12.19 29.12.19 23.12.19 - - - - 23.12.19 29.12.19
_ Min-Zeit 06:40 06:52 06:30 14:30 00:00 - - - - 07:16 11:58
Minimum _ -2,4 C -3,9 C -3,9 C 80 % 995,5 hPa - - - - 0,0 km/h (0 Bft) 30,00 %
Max-Datum _ 24.12.19 23.12.19 24.12.19 26.12.19 28.12.19 24.12.19 28.12.19 25.12.19 28.12.19 24.12.19 23.12.19
_ Max-Zeit 14:48 11:30 14:48 10:08 11:46 17:00 12:17 00:07 13:16 17:00 00:00
Maximum _ 10,4 C 12,2 C 8,9 C 100 % 1041,3 hPa 1,6 l/m 0,05 h 0,05 h 276 W/m 51,5 km/h
O-SO (7 Bft)
100,00 %
Durchschnitt _ 5,0 C 4,4 C 3,7 C 94 % 1023,7 hPa #9,6 l/m #5:40 h #12:42 h 57 W/m 9,5 km/h (2 Bft) 97,07 %
© 2019 W. Hausmann